sensor_id;sensor_type;location;lat;lon;timestamp;P1;durP1;ratioP1;P2;durP2;ratioP2
4317;SDS011;2172;53.576;9.934;2024-03-23T00:54:08;34.33;;;9.03;;
4317;SDS011;2172;53.576;9.934;2024-03-23T00:56:34;28.83;;;7.33;;
4317;SDS011;2172;53.576;9.934;2024-03-23T00:59:02;25.30;;;6.93;;
4317;SDS011;2172;53.576;9.934;2024-03-23T01:01:28;25.43;;;5.67;;
4317;SDS011;2172;53.576;9.934;2024-03-23T01:03:56;24.43;;;6.80;;
4317;SDS011;2172;53.576;9.934;2024-03-23T01:06:22;23.03;;;5.67;;
4317;SDS011;2172;53.576;9.934;2024-03-23T01:08:51;28.53;;;6.97;;
4317;SDS011;2172;53.576;9.934;2024-03-23T01:11:18;29.53;;;6.67;;
4317;SDS011;2172;53.576;9.934;2024-03-23T01:13:45;38.27;;;7.67;;
4317;SDS011;2172;53.576;9.934;2024-03-23T01:16:12;20.70;;;7.80;;
4317;SDS011;2172;53.576;9.934;2024-03-23T01:18:39;23.00;;;6.63;;
4317;SDS011;2172;53.576;9.934;2024-03-23T01:21:06;30.40;;;6.60;;
4317;SDS011;2172;53.576;9.934;2024-03-23T01:23:33;31.07;;;7.90;;
4317;SDS011;2172;53.576;9.934;2024-03-23T01:26:01;22.60;;;6.20;;
4317;SDS011;2172;53.576;9.934;2024-03-23T01:28:29;27.33;;;6.70;;
4317;SDS011;2172;53.576;9.934;2024-03-23T01:30:55;20.77;;;7.57;;
4317;SDS011;2172;53.576;9.934;2024-03-23T01:33:23;25.47;;;6.20;;
4317;SDS011;2172;53.576;9.934;2024-03-23T01:35:49;25.90;;;6.93;;
4317;SDS011;2172;53.576;9.934;2024-03-23T01:38:17;25.00;;;7.30;;
4317;SDS011;2172;53.576;9.934;2024-03-23T01:40:44;27.07;;;6.40;;
4317;SDS011;2172;53.576;9.934;2024-03-23T01:43:13;27.53;;;7.27;;
4317;SDS011;2172;53.576;9.934;2024-03-23T01:45:39;35.20;;;8.10;;
4317;SDS011;2172;53.576;9.934;2024-03-23T01:48:07;26.10;;;8.13;;
4317;SDS011;2172;53.576;9.934;2024-03-23T01:50:34;35.93;;;7.80;;
4317;SDS011;2172;53.576;9.934;2024-03-23T01:53:01;30.10;;;8.33;;
4317;SDS011;2172;53.576;9.934;2024-03-23T01:55:30;22.60;;;8.13;;
4317;SDS011;2172;53.576;9.934;2024-03-23T01:57:58;31.70;;;8.40;;
4317;SDS011;2172;53.576;9.934;2024-03-23T02:00:26;24.30;;;7.70;;
4317;SDS011;2172;53.576;9.934;2024-03-23T02:02:54;25.30;;;7.93;;
4317;SDS011;2172;53.576;9.934;2024-03-23T02:05:21;27.13;;;7.63;;
4317;SDS011;2172;53.576;9.934;2024-03-23T02:07:49;24.90;;;7.80;;
4317;SDS011;2172;53.576;9.934;2024-03-23T02:10:17;33.30;;;7.30;;
4317;SDS011;2172;53.576;9.934;2024-03-23T02:12:44;26.57;;;7.57;;
4317;SDS011;2172;53.576;9.934;2024-03-23T02:15:11;31.67;;;7.40;;
4317;SDS011;2172;53.576;9.934;2024-03-23T02:17:40;29.80;;;7.07;;
4317;SDS011;2172;53.576;9.934;2024-03-23T02:20:07;20.97;;;7.10;;
4317;SDS011;2172;53.576;9.934;2024-03-23T02:22:36;25.93;;;6.47;;
4317;SDS011;2172;53.576;9.934;2024-03-23T02:25:05;24.33;;;8.03;;
4317;SDS011;2172;53.576;9.934;2024-03-23T02:27:33;24.30;;;7.30;;
4317;SDS011;2172;53.576;9.934;2024-03-23T02:30:01;29.20;;;6.67;;
4317;SDS011;2172;53.576;9.934;2024-03-23T02:32:29;26.40;;;7.10;;
4317;SDS011;2172;53.576;9.934;2024-03-23T02:34:55;26.77;;;7.03;;
4317;SDS011;2172;53.576;9.934;2024-03-23T02:37:23;22.90;;;5.93;;
4317;SDS011;2172;53.576;9.934;2024-03-23T02:39:50;17.03;;;6.57;;
4317;SDS011;2172;53.576;9.934;2024-03-23T02:42:18;27.37;;;7.50;;
4317;SDS011;2172;53.576;9.934;2024-03-23T02:44:45;26.30;;;7.00;;
4317;SDS011;2172;53.576;9.934;2024-03-23T02:47:13;27.40;;;6.20;;
4317;SDS011;2172;53.576;9.934;2024-03-23T02:49:39;21.97;;;7.17;;
4317;SDS011;2172;53.576;9.934;2024-03-23T02:52:07;20.60;;;6.57;;
4317;SDS011;2172;53.576;9.934;2024-03-23T02:54:33;25.93;;;7.40;;
4317;SDS011;2172;53.576;9.934;2024-03-23T02:57:01;26.10;;;7.80;;
4317;SDS011;2172;53.576;9.934;2024-03-23T02:59:29;28.23;;;6.70;;
4317;SDS011;2172;53.576;9.934;2024-03-23T03:01:56;30.30;;;7.20;;
4317;SDS011;2172;53.576;9.934;2024-03-23T03:04:25;32.40;;;6.47;;
4317;SDS011;2172;53.576;9.934;2024-03-23T03:06:52;21.60;;;6.30;;
4317;SDS011;2172;53.576;9.934;2024-03-23T03:09:19;21.10;;;6.60;;
4317;SDS011;2172;53.576;9.934;2024-03-23T03:11:47;24.50;;;7.23;;
4317;SDS011;2172;53.576;9.934;2024-03-23T03:14:13;31.07;;;6.07;;
4317;SDS011;2172;53.576;9.934;2024-03-23T03:16:42;24.47;;;6.33;;
4317;SDS011;2172;53.576;9.934;2024-03-23T03:19:09;31.23;;;7.10;;
4317;SDS011;2172;53.576;9.934;2024-03-23T03:21:38;24.13;;;6.77;;
4317;SDS011;2172;53.576;9.934;2024-03-23T03:24:05;23.83;;;6.83;;
4317;SDS011;2172;53.576;9.934;2024-03-23T03:26:33;28.17;;;7.40;;
4317;SDS011;2172;53.576;9.934;2024-03-23T03:28:59;21.23;;;5.63;;
4317;SDS011;2172;53.576;9.934;2024-03-23T03:31:27;18.00;;;6.13;;
4317;SDS011;2172;53.576;9.934;2024-03-23T03:33:56;24.47;;;6.43;;
4317;SDS011;2172;53.576;9.934;2024-03-23T03:36:23;26.37;;;6.90;;
4317;SDS011;2172;53.576;9.934;2024-03-23T03:38:50;23.87;;;6.13;;
4317;SDS011;2172;53.576;9.934;2024-03-23T03:41:18;24.83;;;6.43;;
4317;SDS011;2172;53.576;9.934;2024-03-23T03:43:46;25.17;;;6.13;;
4317;SDS011;2172;53.576;9.934;2024-03-23T03:46:12;24.77;;;7.03;;
4317;SDS011;2172;53.576;9.934;2024-03-23T03:48:40;25.90;;;7.10;;
4317;SDS011;2172;53.576;9.934;2024-03-23T03:51:08;26.27;;;7.30;;
4317;SDS011;2172;53.576;9.934;2024-03-23T03:53:36;28.23;;;7.77;;
4317;SDS011;2172;53.576;9.934;2024-03-23T03:56:04;28.23;;;7.30;;
4317;SDS011;2172;53.576;9.934;2024-03-23T03:58:32;22.33;;;6.33;;
4317;SDS011;2172;53.576;9.934;2024-03-23T04:00:59;17.37;;;5.00;;
4317;SDS011;2172;53.576;9.934;2024-03-23T04:03:27;21.73;;;6.03;;
4317;SDS011;2172;53.576;9.934;2024-03-23T04:05:55;28.20;;;6.70;;
4317;SDS011;2172;53.576;9.934;2024-03-23T04:08:24;24.10;;;6.93;;
4317;SDS011;2172;53.576;9.934;2024-03-23T04:10:52;18.87;;;6.87;;
4317;SDS011;2172;53.576;9.934;2024-03-23T04:13:20;25.53;;;6.27;;
4317;SDS011;2172;53.576;9.934;2024-03-23T04:15:47;20.17;;;5.60;;
4317;SDS011;2172;53.576;9.934;2024-03-23T04:18:15;20.47;;;7.30;;
4317;SDS011;2172;53.576;9.934;2024-03-23T04:20:41;26.80;;;7.60;;
4317;SDS011;2172;53.576;9.934;2024-03-23T04:23:09;25.30;;;7.20;;
4317;SDS011;2172;53.576;9.934;2024-03-23T04:25:37;26.43;;;6.90;;
4317;SDS011;2172;53.576;9.934;2024-03-23T04:28:05;23.93;;;7.07;;
4317;SDS011;2172;53.576;9.934;2024-03-23T04:30:32;20.43;;;5.70;;
4317;SDS011;2172;53.576;9.934;2024-03-23T04:33:02;27.73;;;7.40;;
4317;SDS011;2172;53.576;9.934;2024-03-23T04:35:30;17.40;;;5.53;;
4317;SDS011;2172;53.576;9.934;2024-03-23T04:37:58;22.50;;;7.43;;
4317;SDS011;2172;53.576;9.934;2024-03-23T04:40:25;27.03;;;6.37;;
4317;SDS011;2172;53.576;9.934;2024-03-23T04:42:54;34.10;;;7.40;;
4317;SDS011;2172;53.576;9.934;2024-03-23T04:45:22;20.70;;;6.00;;
4317;SDS011;2172;53.576;9.934;2024-03-23T04:47:50;27.37;;;7.50;;
4317;SDS011;2172;53.576;9.934;2024-03-23T04:50:17;32.40;;;7.30;;
4317;SDS011;2172;53.576;9.934;2024-03-23T04:52:46;29.20;;;6.57;;
4317;SDS011;2172;53.576;9.934;2024-03-23T04:55:14;19.43;;;6.23;;
4317;SDS011;2172;53.576;9.934;2024-03-23T04:57:42;28.47;;;6.90;;
4317;SDS011;2172;53.576;9.934;2024-03-23T05:00:12;23.83;;;6.40;;
4317;SDS011;2172;53.576;9.934;2024-03-23T05:02:43;21.27;;;6.03;;
4317;SDS011;2172;53.576;9.934;2024-03-23T05:05:13;14.20;;;5.80;;
4317;SDS011;2172;53.576;9.934;2024-03-23T05:07:58;27.00;;;6.50;;
4317;SDS011;2172;53.576;9.934;2024-03-23T05:10:26;21.23;;;6.93;;
4317;SDS011;2172;53.576;9.934;2024-03-23T05:12:53;24.07;;;6.93;;
4317;SDS011;2172;53.576;9.934;2024-03-23T05:15:22;25.37;;;6.63;;
4317;SDS011;2172;53.576;9.934;2024-03-23T05:17:48;27.03;;;6.30;;
4317;SDS011;2172;53.576;9.934;2024-03-23T05:20:18;24.23;;;5.60;;
4317;SDS011;2172;53.576;9.934;2024-03-23T05:22:44;18.83;;;6.73;;
4317;SDS011;2172;53.576;9.934;2024-03-23T05:25:13;23.23;;;6.20;;
4317;SDS011;2172;53.576;9.934;2024-03-23T05:27:41;22.63;;;6.23;;
4317;SDS011;2172;53.576;9.934;2024-03-23T05:30:09;25.80;;;6.30;;
4317;SDS011;2172;53.576;9.934;2024-03-23T05:32:37;19.00;;;5.30;;
4317;SDS011;2172;53.576;9.934;2024-03-23T05:35:07;31.57;;;6.93;;
4317;SDS011;2172;53.576;9.934;2024-03-23T05:37:37;24.13;;;6.27;;
4317;SDS011;2172;53.576;9.934;2024-03-23T05:40:05;22.40;;;5.70;;
4317;SDS011;2172;53.576;9.934;2024-03-23T05:42:33;32.67;;;7.73;;
4317;SDS011;2172;53.576;9.934;2024-03-23T05:45:01;26.53;;;7.10;;
4317;SDS011;2172;53.576;9.934;2024-03-23T05:47:31;35.10;;;7.10;;
4317;SDS011;2172;53.576;9.934;2024-03-23T05:50:00;19.33;;;6.23;;
4317;SDS011;2172;53.576;9.934;2024-03-23T05:52:27;28.77;;;6.60;;
4317;SDS011;2172;53.576;9.934;2024-03-23T05:54:55;22.67;;;6.23;;
4317;SDS011;2172;53.576;9.934;2024-03-23T05:57:22;25.53;;;5.67;;
4317;SDS011;2172;53.576;9.934;2024-03-23T05:59:49;27.50;;;6.33;;
4317;SDS011;2172;53.576;9.934;2024-03-23T06:02:16;19.47;;;7.00;;
4317;SDS011;2172;53.576;9.934;2024-03-23T06:04:45;15.60;;;6.20;;
4317;SDS011;2172;53.576;9.934;2024-03-23T06:07:13;16.10;;;5.43;;
4317;SDS011;2172;53.576;9.934;2024-03-23T06:09:40;22.77;;;6.70;;
4317;SDS011;2172;53.576;9.934;2024-03-23T06:12:07;22.43;;;6.77;;
4317;SDS011;2172;53.576;9.934;2024-03-23T06:14:37;20.33;;;6.37;;
4317;SDS011;2172;53.576;9.934;2024-03-23T06:17:04;23.90;;;6.77;;
4317;SDS011;2172;53.576;9.934;2024-03-23T06:19:32;18.80;;;5.60;;
4317;SDS011;2172;53.576;9.934;2024-03-23T06:21:59;17.17;;;5.67;;
4317;SDS011;2172;53.576;9.934;2024-03-23T06:24:28;27.13;;;7.00;;
4317;SDS011;2172;53.576;9.934;2024-03-23T06:26:54;18.17;;;5.00;;
4317;SDS011;2172;53.576;9.934;2024-03-23T06:29:22;19.07;;;6.30;;
4317;SDS011;2172;53.576;9.934;2024-03-23T06:31:53;27.13;;;6.97;;
4317;SDS011;2172;53.576;9.934;2024-03-23T06:34:21;24.07;;;7.10;;
4317;SDS011;2172;53.576;9.934;2024-03-23T06:36:48;21.50;;;5.70;;
4317;SDS011;2172;53.576;9.934;2024-03-23T06:39:15;29.90;;;9.03;;
4317;SDS011;2172;53.576;9.934;2024-03-23T06:41:51;23.33;;;6.00;;
4317;SDS011;2172;53.576;9.934;2024-03-23T06:44:18;16.43;;;6.43;;
4317;SDS011;2172;53.576;9.934;2024-03-23T06:46:45;15.67;;;6.50;;
4317;SDS011;2172;53.576;9.934;2024-03-23T06:49:14;23.33;;;6.30;;
4317;SDS011;2172;53.576;9.934;2024-03-23T06:51:41;16.50;;;5.40;;
4317;SDS011;2172;53.576;9.934;2024-03-23T06:54:09;22.10;;;7.60;;
4317;SDS011;2172;53.576;9.934;2024-03-23T06:56:38;22.00;;;7.37;;
4317;SDS011;2172;53.576;9.934;2024-03-23T06:59:06;24.97;;;8.20;;
4317;SDS011;2172;53.576;9.934;2024-03-23T07:01:33;22.17;;;6.43;;
4317;SDS011;2172;53.576;9.934;2024-03-23T07:04:00;20.60;;;5.43;;
4317;SDS011;2172;53.576;9.934;2024-03-23T07:06:29;17.67;;;5.53;;
4317;SDS011;2172;53.576;9.934;2024-03-23T07:08:56;29.03;;;6.60;;
4317;SDS011;2172;53.576;9.934;2024-03-23T07:11:23;13.27;;;5.07;;
4317;SDS011;2172;53.576;9.934;2024-03-23T07:13:50;25.53;;;6.03;;
4317;SDS011;2172;53.576;9.934;2024-03-23T07:16:21;23.43;;;5.67;;
4317;SDS011;2172;53.576;9.934;2024-03-23T07:18:50;21.77;;;6.70;;
4317;SDS011;2172;53.576;9.934;2024-03-23T07:21:17;15.57;;;5.50;;
4317;SDS011;2172;53.576;9.934;2024-03-23T07:23:44;16.70;;;5.23;;
4317;SDS011;2172;53.576;9.934;2024-03-23T07:26:12;16.00;;;5.63;;
4317;SDS011;2172;53.576;9.934;2024-03-23T07:28:39;22.53;;;5.37;;
4317;SDS011;2172;53.576;9.934;2024-03-23T07:31:09;18.17;;;5.47;;
4317;SDS011;2172;53.576;9.934;2024-03-23T07:33:40;16.60;;;5.73;;
4317;SDS011;2172;53.576;9.934;2024-03-23T07:36:08;16.93;;;6.27;;
4317;SDS011;2172;53.576;9.934;2024-03-23T07:38:35;22.13;;;6.00;;
4317;SDS011;2172;53.576;9.934;2024-03-23T07:41:03;22.57;;;6.50;;
4317;SDS011;2172;53.576;9.934;2024-03-23T07:43:30;24.90;;;5.80;;
4317;SDS011;2172;53.576;9.934;2024-03-23T07:45:58;15.07;;;6.93;;
4317;SDS011;2172;53.576;9.934;2024-03-23T07:48:25;26.80;;;5.80;;
4317;SDS011;2172;53.576;9.934;2024-03-23T07:50:57;19.27;;;5.30;;
4317;SDS011;2172;53.576;9.934;2024-03-23T07:53:27;11.13;;;4.23;;
4317;SDS011;2172;53.576;9.934;2024-03-23T07:55:57;21.00;;;5.23;;
4317;SDS011;2172;53.576;9.934;2024-03-23T07:58:24;18.60;;;5.30;;
4317;SDS011;2172;53.576;9.934;2024-03-23T08:00:52;19.77;;;6.07;;
4317;SDS011;2172;53.576;9.934;2024-03-23T08:03:19;15.67;;;5.03;;
4317;SDS011;2172;53.576;9.934;2024-03-23T08:05:47;19.30;;;5.20;;
4317;SDS011;2172;53.576;9.934;2024-03-23T08:08:15;21.93;;;5.40;;
4317;SDS011;2172;53.576;9.934;2024-03-23T08:10:49;17.00;;;4.87;;
4317;SDS011;2172;53.576;9.934;2024-03-23T08:13:15;13.83;;;4.90;;
4317;SDS011;2172;53.576;9.934;2024-03-23T08:15:43;19.20;;;6.43;;
4317;SDS011;2172;53.576;9.934;2024-03-23T08:18:10;17.03;;;5.60;;
4317;SDS011;2172;53.576;9.934;2024-03-23T08:20:38;15.70;;;4.87;;
4317;SDS011;2172;53.576;9.934;2024-03-23T08:23:05;23.67;;;4.80;;
4317;SDS011;2172;53.576;9.934;2024-03-23T08:25:37;16.00;;;5.53;;
4317;SDS011;2172;53.576;9.934;2024-03-23T08:28:04;12.57;;;6.53;;
4317;SDS011;2172;53.576;9.934;2024-03-23T08:30:34;15.37;;;6.60;;
4317;SDS011;2172;53.576;9.934;2024-03-23T08:33:01;15.20;;;6.57;;
4317;SDS011;2172;53.576;9.934;2024-03-23T08:35:29;12.80;;;4.70;;
4317;SDS011;2172;53.576;9.934;2024-03-23T08:37:56;14.63;;;5.53;;
4317;SDS011;2172;53.576;9.934;2024-03-23T08:40:24;10.07;;;4.80;;
4317;SDS011;2172;53.576;9.934;2024-03-23T08:42:57;10.13;;;4.23;;
4317;SDS011;2172;53.576;9.934;2024-03-23T08:45:27;16.97;;;4.23;;
4317;SDS011;2172;53.576;9.934;2024-03-23T08:47:54;15.37;;;5.00;;
4317;SDS011;2172;53.576;9.934;2024-03-23T08:50:24;15.00;;;4.67;;
4317;SDS011;2172;53.576;9.934;2024-03-23T08:52:51;13.70;;;5.20;;
4317;SDS011;2172;53.576;9.934;2024-03-23T08:55:18;12.03;;;4.10;;
4317;SDS011;2172;53.576;9.934;2024-03-23T08:57:45;13.47;;;3.77;;
4317;SDS011;2172;53.576;9.934;2024-03-23T09:00:14;15.47;;;4.57;;
4317;SDS011;2172;53.576;9.934;2024-03-23T09:02:41;18.70;;;5.40;;
4317;SDS011;2172;53.576;9.934;2024-03-23T09:05:09;13.83;;;5.67;;
4317;SDS011;2172;53.576;9.934;2024-03-23T09:07:37;10.40;;;4.30;;
4317;SDS011;2172;53.576;9.934;2024-03-23T09:10:05;12.90;;;3.87;;
4317;SDS011;2172;53.576;9.934;2024-03-23T09:12:32;10.30;;;4.60;;
4317;SDS011;2172;53.576;9.934;2024-03-23T09:14:59;17.40;;;4.20;;
4317;SDS011;2172;53.576;9.934;2024-03-23T09:17:27;10.43;;;3.40;;
4317;SDS011;2172;53.576;9.934;2024-03-23T09:19:55;11.53;;;3.40;;
4317;SDS011;2172;53.576;9.934;2024-03-23T09:22:22;17.80;;;4.67;;
4317;SDS011;2172;53.576;9.934;2024-03-23T09:24:49;11.17;;;3.40;;
4317;SDS011;2172;53.576;9.934;2024-03-23T09:27:21;10.00;;;4.70;;
4317;SDS011;2172;53.576;9.934;2024-03-23T09:29:48;14.50;;;3.70;;
4317;SDS011;2172;53.576;9.934;2024-03-23T09:32:15;13.63;;;4.30;;
4317;SDS011;2172;53.576;9.934;2024-03-23T09:34:44;12.40;;;4.57;;
4317;SDS011;2172;53.576;9.934;2024-03-23T09:37:11;11.13;;;4.30;;
4317;SDS011;2172;53.576;9.934;2024-03-23T09:39:38;10.33;;;3.70;;
4317;SDS011;2172;53.576;9.934;2024-03-23T09:42:05;16.17;;;4.17;;
4317;SDS011;2172;53.576;9.934;2024-03-23T09:44:33;10.80;;;4.00;;
4317;SDS011;2172;53.576;9.934;2024-03-23T09:47:01;15.93;;;4.07;;
4317;SDS011;2172;53.576;9.934;2024-03-23T09:49:29;8.43;;;3.70;;
4317;SDS011;2172;53.576;9.934;2024-03-23T09:51:57;11.20;;;3.57;;
4317;SDS011;2172;53.576;9.934;2024-03-23T09:54:24;7.00;;;3.40;;
4317;SDS011;2172;53.576;9.934;2024-03-23T09:56:51;14.83;;;3.50;;
4317;SDS011;2172;53.576;9.934;2024-03-23T09:59:18;9.67;;;3.37;;
4317;SDS011;2172;53.576;9.934;2024-03-23T10:01:45;12.73;;;4.37;;
4317;SDS011;2172;53.576;9.934;2024-03-23T10:07:11;9.93;;;3.77;;
4317;SDS011;2172;53.576;9.934;2024-03-23T10:09:45;14.67;;;4.30;;
4317;SDS011;2172;53.576;9.934;2024-03-23T10:12:12;7.53;;;3.77;;
4317;SDS011;2172;53.576;9.934;2024-03-23T10:14:41;10.60;;;3.47;;
4317;SDS011;2172;53.576;9.934;2024-03-23T10:17:14;15.97;;;3.93;;
4317;SDS011;2172;53.576;9.934;2024-03-23T10:19:43;7.27;;;3.80;;
4317;SDS011;2172;53.576;9.934;2024-03-23T10:22:12;10.33;;;3.93;;
4317;SDS011;2172;53.576;9.934;2024-03-23T10:24:41;8.20;;;3.53;;
4317;SDS011;2172;53.576;9.934;2024-03-23T10:27:08;14.33;;;4.20;;
4317;SDS011;2172;53.576;9.934;2024-03-23T10:29:35;11.00;;;3.40;;
4317;SDS011;2172;53.576;9.934;2024-03-23T10:32:08;15.50;;;3.77;;
4317;SDS011;2172;53.576;9.934;2024-03-23T10:34:36;12.03;;;3.80;;
4317;SDS011;2172;53.576;9.934;2024-03-23T10:37:03;9.07;;;2.70;;
4317;SDS011;2172;53.576;9.934;2024-03-23T10:39:34;9.37;;;3.60;;
4317;SDS011;2172;53.576;9.934;2024-03-23T10:42:04;7.03;;;2.83;;
4317;SDS011;2172;53.576;9.934;2024-03-23T10:44:34;14.83;;;4.30;;
4317;SDS011;2172;53.576;9.934;2024-03-23T10:47:05;7.73;;;3.07;;
4317;SDS011;2172;53.576;9.934;2024-03-23T10:49:33;19.37;;;3.93;;
4317;SDS011;2172;53.576;9.934;2024-03-23T10:52:01;8.57;;;3.57;;
4317;SDS011;2172;53.576;9.934;2024-03-23T10:54:29;8.87;;;2.80;;
4317;SDS011;2172;53.576;9.934;2024-03-23T10:56:59;12.47;;;4.20;;
4317;SDS011;2172;53.576;9.934;2024-03-23T10:59:30;8.60;;;3.00;;
4317;SDS011;2172;53.576;9.934;2024-03-23T11:01:57;14.97;;;3.73;;
4317;SDS011;2172;53.576;9.934;2024-03-23T11:04:31;10.33;;;2.80;;
4317;SDS011;2172;53.576;9.934;2024-03-23T11:06:58;4.63;;;3.07;;
4317;SDS011;2172;53.576;9.934;2024-03-23T11:09:39;10.10;;;2.63;;
4317;SDS011;2172;53.576;9.934;2024-03-23T11:14:58;8.67;;;2.40;;
4317;SDS011;2172;53.576;9.934;2024-03-23T11:17:27;7.83;;;2.33;;
4317;SDS011;2172;53.576;9.934;2024-03-23T11:19:57;9.70;;;3.03;;
4317;SDS011;2172;53.576;9.934;2024-03-23T11:22:39;7.17;;;2.20;;
4317;SDS011;2172;53.576;9.934;2024-03-23T11:25:14;8.93;;;2.33;;
4317;SDS011;2172;53.576;9.934;2024-03-23T11:27:43;9.17;;;2.40;;
4317;SDS011;2172;53.576;9.934;2024-03-23T11:30:12;9.30;;;2.43;;
4317;SDS011;2172;53.576;9.934;2024-03-23T11:32:39;5.90;;;2.10;;
4317;SDS011;2172;53.576;9.934;2024-03-23T11:35:08;9.80;;;2.10;;
4317;SDS011;2172;53.576;9.934;2024-03-23T11:37:35;7.47;;;2.97;;
4317;SDS011;2172;53.576;9.934;2024-03-23T11:40:16;9.80;;;2.77;;
4317;SDS011;2172;53.576;9.934;2024-03-23T11:42:44;8.60;;;2.13;;
4317;SDS011;2172;53.576;9.934;2024-03-23T11:45:12;6.97;;;2.47;;
4317;SDS011;2172;53.576;9.934;2024-03-23T11:47:41;5.97;;;2.07;;
4317;SDS011;2172;53.576;9.934;2024-03-23T11:50:09;8.43;;;2.90;;
4317;SDS011;2172;53.576;9.934;2024-03-23T11:52:35;9.27;;;2.60;;
4317;SDS011;2172;53.576;9.934;2024-03-23T11:55:06;8.90;;;2.60;;
4317;SDS011;2172;53.576;9.934;2024-03-23T11:57:33;6.90;;;2.20;;
4317;SDS011;2172;53.576;9.934;2024-03-23T12:00:02;6.60;;;1.60;;
4317;SDS011;2172;53.576;9.934;2024-03-23T12:02:48;3.20;;;1.07;;
4317;SDS011;2172;53.576;9.934;2024-03-23T12:05:16;7.20;;;1.20;;
4317;SDS011;2172;53.576;9.934;2024-03-23T12:07:43;1.77;;;1.10;;
4317;SDS011;2172;53.576;9.934;2024-03-23T12:10:11;1.73;;;1.27;;
4317;SDS011;2172;53.576;9.934;2024-03-23T12:12:37;4.47;;;1.43;;
4317;SDS011;2172;53.576;9.934;2024-03-23T12:15:07;3.80;;;1.30;;
4317;SDS011;2172;53.576;9.934;2024-03-23T12:17:34;4.70;;;1.20;;
4317;SDS011;2172;53.576;9.934;2024-03-23T12:20:02;5.93;;;1.50;;
4317;SDS011;2172;53.576;9.934;2024-03-23T12:22:30;6.47;;;1.80;;
4317;SDS011;2172;53.576;9.934;2024-03-23T12:24:57;3.77;;;1.93;;
4317;SDS011;2172;53.576;9.934;2024-03-23T12:27:24;3.27;;;1.83;;
4317;SDS011;2172;53.576;9.934;2024-03-23T12:29:51;6.57;;;2.00;;
4317;SDS011;2172;53.576;9.934;2024-03-23T12:32:19;4.80;;;1.70;;
4317;SDS011;2172;53.576;9.934;2024-03-23T12:34:47;4.87;;;1.53;;
4317;SDS011;2172;53.576;9.934;2024-03-23T12:37:14;6.77;;;1.80;;
4317;SDS011;2172;53.576;9.934;2024-03-23T12:39:42;2.60;;;1.43;;
4317;SDS011;2172;53.576;9.934;2024-03-23T12:42:09;1.80;;;0.90;;
4317;SDS011;2172;53.576;9.934;2024-03-23T12:44:37;2.20;;;1.00;;
4317;SDS011;2172;53.576;9.934;2024-03-23T12:47:03;4.47;;;0.80;;
4317;SDS011;2172;53.576;9.934;2024-03-23T12:49:33;2.50;;;1.00;;
4317;SDS011;2172;53.576;9.934;2024-03-23T12:52:18;3.70;;;1.10;;
4317;SDS011;2172;53.576;9.934;2024-03-23T12:54:46;5.90;;;1.43;;
4317;SDS011;2172;53.576;9.934;2024-03-23T12:57:13;4.13;;;1.20;;
4317;SDS011;2172;53.576;9.934;2024-03-23T12:59:41;3.83;;;1.50;;
4317;SDS011;2172;53.576;9.934;2024-03-23T13:02:07;5.23;;;1.30;;
4317;SDS011;2172;53.576;9.934;2024-03-23T13:04:37;7.07;;;1.80;;
4317;SDS011;2172;53.576;9.934;2024-03-23T13:07:03;4.53;;;1.70;;
4317;SDS011;2172;53.576;9.934;2024-03-23T13:09:32;3.53;;;1.30;;
4317;SDS011;2172;53.576;9.934;2024-03-23T13:11:58;6.53;;;1.83;;
4317;SDS011;2172;53.576;9.934;2024-03-23T13:14:26;3.73;;;1.30;;
4317;SDS011;2172;53.576;9.934;2024-03-23T13:16:53;2.93;;;1.33;;
4317;SDS011;2172;53.576;9.934;2024-03-23T13:19:20;7.83;;;1.50;;
4317;SDS011;2172;53.576;9.934;2024-03-23T13:21:53;6.27;;;1.67;;
4317;SDS011;2172;53.576;9.934;2024-03-23T13:24:21;7.37;;;2.00;;
4317;SDS011;2172;53.576;9.934;2024-03-23T13:26:49;4.40;;;1.43;;
4317;SDS011;2172;53.576;9.934;2024-03-23T13:29:17;5.80;;;2.17;;
4317;SDS011;2172;53.576;9.934;2024-03-23T13:31:44;4.73;;;2.20;;
4317;SDS011;2172;53.576;9.934;2024-03-23T13:34:12;4.63;;;2.13;;
4317;SDS011;2172;53.576;9.934;2024-03-23T13:36:40;4.27;;;2.17;;
4317;SDS011;2172;53.576;9.934;2024-03-23T13:39:09;4.77;;;1.87;;
4317;SDS011;2172;53.576;9.934;2024-03-23T13:41:40;3.63;;;1.90;;
4317;SDS011;2172;53.576;9.934;2024-03-23T13:44:08;2.97;;;1.40;;
4317;SDS011;2172;53.576;9.934;2024-03-23T13:46:35;6.87;;;2.10;;
4317;SDS011;2172;53.576;9.934;2024-03-23T13:49:04;4.70;;;1.50;;
4317;SDS011;2172;53.576;9.934;2024-03-23T13:51:30;3.30;;;1.80;;
4317;SDS011;2172;53.576;9.934;2024-03-23T13:53:58;2.70;;;1.90;;
4317;SDS011;2172;53.576;9.934;2024-03-23T13:56:27;2.93;;;1.53;;
4317;SDS011;2172;53.576;9.934;2024-03-23T13:58:55;5.00;;;1.10;;
4317;SDS011;2172;53.576;9.934;2024-03-23T14:01:23;2.00;;;0.83;;
4317;SDS011;2172;53.576;9.934;2024-03-23T14:03:51;2.60;;;1.07;;
4317;SDS011;2172;53.576;9.934;2024-03-23T14:06:18;3.50;;;1.07;;
4317;SDS011;2172;53.576;9.934;2024-03-23T14:08:45;2.87;;;1.27;;
4317;SDS011;2172;53.576;9.934;2024-03-23T14:11:12;3.53;;;1.23;;
4317;SDS011;2172;53.576;9.934;2024-03-23T14:13:41;2.80;;;1.40;;
4317;SDS011;2172;53.576;9.934;2024-03-23T14:16:07;3.83;;;1.57;;
4317;SDS011;2172;53.576;9.934;2024-03-23T14:18:35;3.73;;;1.37;;
4317;SDS011;2172;53.576;9.934;2024-03-23T14:21:02;3.13;;;1.17;;
4317;SDS011;2172;53.576;9.934;2024-03-23T14:23:30;5.80;;;1.73;;
4317;SDS011;2172;53.576;9.934;2024-03-23T14:25:58;5.20;;;1.63;;
4317;SDS011;2172;53.576;9.934;2024-03-23T14:28:26;6.67;;;1.70;;
4317;SDS011;2172;53.576;9.934;2024-03-23T14:30:55;3.90;;;1.77;;
4317;SDS011;2172;53.576;9.934;2024-03-23T14:33:22;3.00;;;1.30;;
4317;SDS011;2172;53.576;9.934;2024-03-23T14:35:52;5.40;;;1.47;;
4317;SDS011;2172;53.576;9.934;2024-03-23T14:38:20;3.83;;;1.20;;
4317;SDS011;2172;53.576;9.934;2024-03-23T14:40:47;3.23;;;1.43;;
4317;SDS011;2172;53.576;9.934;2024-03-23T14:43:15;6.10;;;1.60;;
4317;SDS011;2172;53.576;9.934;2024-03-23T14:45:48;4.90;;;1.80;;
4317;SDS011;2172;53.576;9.934;2024-03-23T14:48:37;5.30;;;1.90;;
4317;SDS011;2172;53.576;9.934;2024-03-23T14:51:04;7.13;;;2.67;;
4317;SDS011;2172;53.576;9.934;2024-03-23T14:53:33;5.43;;;1.70;;
4317;SDS011;2172;53.576;9.934;2024-03-23T14:56:01;4.10;;;1.57;;
4317;SDS011;2172;53.576;9.934;2024-03-23T14:58:29;5.20;;;1.63;;
4317;SDS011;2172;53.576;9.934;2024-03-23T15:01:05;4.00;;;1.40;;
4317;SDS011;2172;53.576;9.934;2024-03-23T15:03:35;2.20;;;1.30;;
4317;SDS011;2172;53.576;9.934;2024-03-23T15:06:02;4.67;;;1.00;;
4317;SDS011;2172;53.576;9.934;2024-03-23T15:08:30;3.43;;;0.83;;
4317;SDS011;2172;53.576;9.934;2024-03-23T15:10:58;4.43;;;1.10;;
4317;SDS011;2172;53.576;9.934;2024-03-23T15:13:30;2.00;;;1.10;;
4317;SDS011;2172;53.576;9.934;2024-03-23T15:16:00;4.20;;;1.37;;
4317;SDS011;2172;53.576;9.934;2024-03-23T15:18:30;4.73;;;1.40;;
4317;SDS011;2172;53.576;9.934;2024-03-23T15:20:57;2.60;;;0.80;;
4317;SDS011;2172;53.576;9.934;2024-03-23T15:23:27;4.40;;;1.00;;
4317;SDS011;2172;53.576;9.934;2024-03-23T15:25:54;2.20;;;0.90;;
4317;SDS011;2172;53.576;9.934;2024-03-23T15:28:21;2.27;;;1.00;;
4317;SDS011;2172;53.576;9.934;2024-03-23T15:30:48;5.77;;;1.30;;
4317;SDS011;2172;53.576;9.934;2024-03-23T15:33:16;4.13;;;1.90;;
4317;SDS011;2172;53.576;9.934;2024-03-23T15:35:44;3.60;;;2.27;;
4317;SDS011;2172;53.576;9.934;2024-03-23T15:38:12;6.23;;;2.53;;
4317;SDS011;2172;53.576;9.934;2024-03-23T15:40:39;5.33;;;2.67;;
4317;SDS011;2172;53.576;9.934;2024-03-23T15:43:06;3.47;;;1.77;;
4317;SDS011;2172;53.576;9.934;2024-03-23T15:45:33;5.10;;;1.90;;
4317;SDS011;2172;53.576;9.934;2024-03-23T15:48:00;3.40;;;1.70;;
4317;SDS011;2172;53.576;9.934;2024-03-23T15:50:27;7.67;;;3.27;;
4317;SDS011;2172;53.576;9.934;2024-03-23T15:52:56;3.20;;;2.10;;
4317;SDS011;2172;53.576;9.934;2024-03-23T15:55:23;8.60;;;4.37;;
4317;SDS011;2172;53.576;9.934;2024-03-23T15:57:50;3.80;;;1.90;;
4317;SDS011;2172;53.576;9.934;2024-03-23T16:00:17;9.27;;;3.07;;
4317;SDS011;2172;53.576;9.934;2024-03-23T16:02:45;9.93;;;3.13;;
4317;SDS011;2172;53.576;9.934;2024-03-23T16:05:11;4.53;;;2.17;;
4317;SDS011;2172;53.576;9.934;2024-03-23T16:07:39;5.57;;;2.80;;
4317;SDS011;2172;53.576;9.934;2024-03-23T16:10:08;7.67;;;2.53;;
4317;SDS011;2172;53.576;9.934;2024-03-23T16:12:37;3.53;;;1.90;;